sensor_id;sensor_type;location;lat;lon;timestamp;P1;durP1;ratioP1;P2;durP2;ratioP2
9214;SDS011;4642;51.364;6.788;2023-03-14T00:01:49;5.30;;;1.53;;
9214;SDS011;4642;51.364;6.788;2023-03-14T00:04:15;5.60;;;1.50;;
9214;SDS011;4642;51.364;6.788;2023-03-14T00:06:41;5.67;;;1.50;;
9214;SDS011;4642;51.364;6.788;2023-03-14T00:09:06;11.67;;;1.90;;
9214;SDS011;4642;51.364;6.788;2023-03-14T00:11:33;6.93;;;1.57;;
9214;SDS011;4642;51.364;6.788;2023-03-14T00:13:58;2.87;;;1.13;;
9214;SDS011;4642;51.364;6.788;2023-03-14T00:16:25;8.77;;;1.70;;
9214;SDS011;4642;51.364;6.788;2023-03-14T00:18:51;7.70;;;1.67;;
9214;SDS011;4642;51.364;6.788;2023-03-14T00:21:17;5.57;;;1.60;;
9214;SDS011;4642;51.364;6.788;2023-03-14T00:23:43;5.53;;;1.40;;
9214;SDS011;4642;51.364;6.788;2023-03-14T00:26:13;5.40;;;1.33;;
9214;SDS011;4642;51.364;6.788;2023-03-14T00:28:40;12.43;;;1.70;;
9214;SDS011;4642;51.364;6.788;2023-03-14T00:31:07;4.27;;;1.57;;
9214;SDS011;4642;51.364;6.788;2023-03-14T00:33:33;7.27;;;1.13;;
9214;SDS011;4642;51.364;6.788;2023-03-14T00:36:00;5.00;;;1.20;;
9214;SDS011;4642;51.364;6.788;2023-03-14T00:38:31;6.77;;;1.13;;
9214;SDS011;4642;51.364;6.788;2023-03-14T00:40:57;7.33;;;1.03;;
9214;SDS011;4642;51.364;6.788;2023-03-14T00:43:23;6.60;;;1.47;;
9214;SDS011;4642;51.364;6.788;2023-03-14T00:45:50;5.67;;;1.50;;
9214;SDS011;4642;51.364;6.788;2023-03-14T00:48:16;2.57;;;0.70;;
9214;SDS011;4642;51.364;6.788;2023-03-14T00:50:43;2.30;;;0.67;;
9214;SDS011;4642;51.364;6.788;2023-03-14T00:53:09;3.13;;;0.67;;
9214;SDS011;4642;51.364;6.788;2023-03-14T00:55:38;2.57;;;0.67;;
9214;SDS011;4642;51.364;6.788;2023-03-14T00:58:04;3.77;;;0.97;;
9214;SDS011;4642;51.364;6.788;2023-03-14T01:00:30;3.03;;;0.80;;
9214;SDS011;4642;51.364;6.788;2023-03-14T01:02:56;2.47;;;0.73;;
9214;SDS011;4642;51.364;6.788;2023-03-14T01:05:22;5.50;;;1.00;;
9214;SDS011;4642;51.364;6.788;2023-03-14T01:07:48;2.47;;;0.70;;
9214;SDS011;4642;51.364;6.788;2023-03-14T01:10:14;4.47;;;0.97;;
9214;SDS011;4642;51.364;6.788;2023-03-14T01:12:40;4.37;;;1.20;;
9214;SDS011;4642;51.364;6.788;2023-03-14T01:15:05;5.50;;;1.13;;
9214;SDS011;4642;51.364;6.788;2023-03-14T01:17:32;5.63;;;1.30;;
9214;SDS011;4642;51.364;6.788;2023-03-14T01:19:57;4.43;;;1.20;;
9214;SDS011;4642;51.364;6.788;2023-03-14T01:22:24;3.50;;;1.00;;
9214;SDS011;4642;51.364;6.788;2023-03-14T01:24:50;4.10;;;1.23;;
9214;SDS011;4642;51.364;6.788;2023-03-14T01:27:15;4.20;;;1.20;;
9214;SDS011;4642;51.364;6.788;2023-03-14T01:29:41;5.47;;;1.17;;
9214;SDS011;4642;51.364;6.788;2023-03-14T01:32:06;7.53;;;1.23;;
9214;SDS011;4642;51.364;6.788;2023-03-14T01:34:32;5.40;;;1.37;;
9214;SDS011;4642;51.364;6.788;2023-03-14T01:36:57;3.97;;;0.83;;
9214;SDS011;4642;51.364;6.788;2023-03-14T01:39:23;4.90;;;0.83;;
9214;SDS011;4642;51.364;6.788;2023-03-14T01:41:49;4.03;;;0.90;;
9214;SDS011;4642;51.364;6.788;2023-03-14T01:44:14;3.87;;;1.67;;
9214;SDS011;4642;51.364;6.788;2023-03-14T01:46:41;3.67;;;0.93;;
9214;SDS011;4642;51.364;6.788;2023-03-14T01:55:09;5.10;;;1.03;;
9214;SDS011;4642;51.364;6.788;2023-03-14T01:57:36;6.27;;;1.13;;
9214;SDS011;4642;51.364;6.788;2023-03-14T02:00:09;5.03;;;1.30;;
9214;SDS011;4642;51.364;6.788;2023-03-14T02:02:40;7.13;;;1.17;;
9214;SDS011;4642;51.364;6.788;2023-03-14T02:05:09;4.73;;;1.20;;
9214;SDS011;4642;51.364;6.788;2023-03-14T02:07:47;4.67;;;1.13;;
9214;SDS011;4642;51.364;6.788;2023-03-14T02:10:16;4.83;;;1.07;;
9214;SDS011;4642;51.364;6.788;2023-03-14T02:12:45;5.50;;;1.17;;
9214;SDS011;4642;51.364;6.788;2023-03-14T02:15:12;2.87;;;0.80;;
9214;SDS011;4642;51.364;6.788;2023-03-14T02:17:37;5.80;;;1.10;;
9214;SDS011;4642;51.364;6.788;2023-03-14T02:22:49;4.40;;;1.17;;
9214;SDS011;4642;51.364;6.788;2023-03-14T02:27:52;5.23;;;1.40;;
9214;SDS011;4642;51.364;6.788;2023-03-14T02:30:20;7.80;;;1.80;;
9214;SDS011;4642;51.364;6.788;2023-03-14T02:32:48;6.27;;;1.60;;
9214;SDS011;4642;51.364;6.788;2023-03-14T02:35:27;4.40;;;1.40;;
9214;SDS011;4642;51.364;6.788;2023-03-14T02:37:57;7.07;;;1.40;;
9214;SDS011;4642;51.364;6.788;2023-03-14T02:40:29;4.37;;;1.33;;
9214;SDS011;4642;51.364;6.788;2023-03-14T02:42:55;4.37;;;1.37;;
9214;SDS011;4642;51.364;6.788;2023-03-14T02:47:50;8.03;;;2.00;;
9214;SDS011;4642;51.364;6.788;2023-03-14T02:50:20;11.87;;;1.10;;
9214;SDS011;4642;51.364;6.788;2023-03-14T02:52:49;4.70;;;1.07;;
9214;SDS011;4642;51.364;6.788;2023-03-14T02:55:14;5.07;;;1.20;;
9214;SDS011;4642;51.364;6.788;2023-03-14T02:57:44;4.47;;;1.20;;
9214;SDS011;4642;51.364;6.788;2023-03-14T03:00:10;7.30;;;1.73;;
9214;SDS011;4642;51.364;6.788;2023-03-14T03:02:36;5.37;;;1.00;;
9214;SDS011;4642;51.364;6.788;2023-03-14T03:05:01;4.53;;;1.57;;
9214;SDS011;4642;51.364;6.788;2023-03-14T03:07:27;3.37;;;1.10;;
9214;SDS011;4642;51.364;6.788;2023-03-14T03:09:53;3.53;;;1.10;;
9214;SDS011;4642;51.364;6.788;2023-03-14T03:12:18;4.83;;;1.40;;
9214;SDS011;4642;51.364;6.788;2023-03-14T03:14:44;5.00;;;1.10;;
9214;SDS011;4642;51.364;6.788;2023-03-14T03:17:09;6.87;;;1.10;;
9214;SDS011;4642;51.364;6.788;2023-03-14T03:19:35;8.90;;;1.40;;
9214;SDS011;4642;51.364;6.788;2023-03-14T03:22:00;6.07;;;1.37;;
9214;SDS011;4642;51.364;6.788;2023-03-14T03:24:26;7.50;;;1.50;;
9214;SDS011;4642;51.364;6.788;2023-03-14T03:26:52;8.57;;;1.40;;
9214;SDS011;4642;51.364;6.788;2023-03-14T03:29:18;12.10;;;1.83;;
9214;SDS011;4642;51.364;6.788;2023-03-14T03:31:44;6.83;;;1.50;;
9214;SDS011;4642;51.364;6.788;2023-03-14T03:34:12;7.67;;;1.67;;
9214;SDS011;4642;51.364;6.788;2023-03-14T03:36:39;6.10;;;1.90;;
9214;SDS011;4642;51.364;6.788;2023-03-14T03:39:05;5.40;;;1.40;;
9214;SDS011;4642;51.364;6.788;2023-03-14T03:41:31;4.53;;;1.07;;
9214;SDS011;4642;51.364;6.788;2023-03-14T03:43:57;4.43;;;1.10;;
9214;SDS011;4642;51.364;6.788;2023-03-14T03:46:22;5.27;;;1.30;;
9214;SDS011;4642;51.364;6.788;2023-03-14T03:48:48;9.20;;;1.50;;
9214;SDS011;4642;51.364;6.788;2023-03-14T03:51:18;7.27;;;1.47;;
9214;SDS011;4642;51.364;6.788;2023-03-14T03:53:44;5.60;;;1.17;;
9214;SDS011;4642;51.364;6.788;2023-03-14T03:56:09;5.07;;;1.77;;
9214;SDS011;4642;51.364;6.788;2023-03-14T03:58:35;4.93;;;1.17;;
9214;SDS011;4642;51.364;6.788;2023-03-14T04:01:02;5.07;;;1.60;;
9214;SDS011;4642;51.364;6.788;2023-03-14T04:03:28;10.40;;;1.47;;
9214;SDS011;4642;51.364;6.788;2023-03-14T04:08:26;2.93;;;1.47;;
9214;SDS011;4642;51.364;6.788;2023-03-14T04:10:58;6.13;;;1.10;;
9214;SDS011;4642;51.364;6.788;2023-03-14T04:13:25;6.73;;;1.30;;
9214;SDS011;4642;51.364;6.788;2023-03-14T04:15:52;3.87;;;0.90;;
9214;SDS011;4642;51.364;6.788;2023-03-14T04:18:18;3.03;;;0.93;;
9214;SDS011;4642;51.364;6.788;2023-03-14T04:20:44;3.90;;;0.63;;
9214;SDS011;4642;51.364;6.788;2023-03-14T04:23:10;3.10;;;0.80;;
9214;SDS011;4642;51.364;6.788;2023-03-14T04:25:36;1.63;;;0.60;;
9214;SDS011;4642;51.364;6.788;2023-03-14T04:28:02;1.23;;;0.37;;
9214;SDS011;4642;51.364;6.788;2023-03-14T04:30:28;1.13;;;0.40;;
9214;SDS011;4642;51.364;6.788;2023-03-14T04:32:54;1.33;;;0.57;;
9214;SDS011;4642;51.364;6.788;2023-03-14T04:35:20;0.63;;;0.40;;
9214;SDS011;4642;51.364;6.788;2023-03-14T04:37:45;0.40;;;0.40;;
9214;SDS011;4642;51.364;6.788;2023-03-14T04:40:14;0.70;;;0.30;;
9214;SDS011;4642;51.364;6.788;2023-03-14T04:42:40;1.23;;;0.30;;
9214;SDS011;4642;51.364;6.788;2023-03-14T04:45:06;2.30;;;0.47;;
9214;SDS011;4642;51.364;6.788;2023-03-14T04:47:32;1.03;;;0.60;;
9214;SDS011;4642;51.364;6.788;2023-03-14T04:49:58;1.87;;;0.60;;
9214;SDS011;4642;51.364;6.788;2023-03-14T04:52:24;7.73;;;0.90;;
9214;SDS011;4642;51.364;6.788;2023-03-14T04:54:50;2.30;;;0.40;;
9214;SDS011;4642;51.364;6.788;2023-03-14T04:57:16;0.93;;;0.50;;
9214;SDS011;4642;51.364;6.788;2023-03-14T04:59:41;1.50;;;0.60;;
9214;SDS011;4642;51.364;6.788;2023-03-14T05:02:07;2.10;;;0.50;;
9214;SDS011;4642;51.364;6.788;2023-03-14T05:04:32;2.23;;;0.60;;
9214;SDS011;4642;51.364;6.788;2023-03-14T05:06:58;0.97;;;0.40;;
9214;SDS011;4642;51.364;6.788;2023-03-14T05:09:24;0.70;;;0.40;;
9214;SDS011;4642;51.364;6.788;2023-03-14T05:11:50;1.37;;;0.50;;
9214;SDS011;4642;51.364;6.788;2023-03-14T05:14:16;1.97;;;0.70;;
9214;SDS011;4642;51.364;6.788;2023-03-14T05:16:42;0.87;;;0.40;;
9214;SDS011;4642;51.364;6.788;2023-03-14T05:19:07;0.60;;;0.50;;
9214;SDS011;4642;51.364;6.788;2023-03-14T05:21:33;4.13;;;0.83;;
9214;SDS011;4642;51.364;6.788;2023-03-14T05:23:59;1.53;;;0.47;;
9214;SDS011;4642;51.364;6.788;2023-03-14T05:26:24;2.40;;;0.60;;
9214;SDS011;4642;51.364;6.788;2023-03-14T05:28:50;1.07;;;0.40;;
9214;SDS011;4642;51.364;6.788;2023-03-14T05:31:15;1.10;;;0.40;;
9214;SDS011;4642;51.364;6.788;2023-03-14T05:33:41;0.97;;;0.40;;
9214;SDS011;4642;51.364;6.788;2023-03-14T05:36:06;2.33;;;0.50;;
9214;SDS011;4642;51.364;6.788;2023-03-14T05:38:32;1.27;;;0.63;;
9214;SDS011;4642;51.364;6.788;2023-03-14T05:40:58;1.87;;;0.60;;
9214;SDS011;4642;51.364;6.788;2023-03-14T05:43:23;4.37;;;0.90;;
9214;SDS011;4642;51.364;6.788;2023-03-14T05:45:49;2.17;;;0.90;;
9214;SDS011;4642;51.364;6.788;2023-03-14T05:48:14;1.60;;;0.73;;
9214;SDS011;4642;51.364;6.788;2023-03-14T05:50:41;3.97;;;0.80;;
9214;SDS011;4642;51.364;6.788;2023-03-14T05:53:07;1.27;;;0.70;;
9214;SDS011;4642;51.364;6.788;2023-03-14T05:55:33;2.40;;;0.70;;
9214;SDS011;4642;51.364;6.788;2023-03-14T05:57:59;2.00;;;0.70;;
9214;SDS011;4642;51.364;6.788;2023-03-14T06:00:24;2.13;;;0.80;;
9214;SDS011;4642;51.364;6.788;2023-03-14T06:02:50;1.57;;;0.63;;
9214;SDS011;4642;51.364;6.788;2023-03-14T06:05:15;1.33;;;0.47;;
9214;SDS011;4642;51.364;6.788;2023-03-14T06:07:41;1.63;;;0.70;;
9214;SDS011;4642;51.364;6.788;2023-03-14T06:10:07;1.77;;;0.53;;
9214;SDS011;4642;51.364;6.788;2023-03-14T06:12:33;1.23;;;0.50;;
9214;SDS011;4642;51.364;6.788;2023-03-14T06:14:59;1.97;;;0.77;;
9214;SDS011;4642;51.364;6.788;2023-03-14T06:17:24;0.70;;;0.50;;
9214;SDS011;4642;51.364;6.788;2023-03-14T06:19:50;0.30;;;0.30;;
9214;SDS011;4642;51.364;6.788;2023-03-14T06:22:15;1.20;;;0.50;;
9214;SDS011;4642;51.364;6.788;2023-03-14T06:24:41;1.10;;;0.50;;
9214;SDS011;4642;51.364;6.788;2023-03-14T06:27:06;2.10;;;0.40;;
9214;SDS011;4642;51.364;6.788;2023-03-14T06:29:32;0.23;;;0.23;;
9214;SDS011;4642;51.364;6.788;2023-03-14T06:31:58;0.97;;;0.40;;
9214;SDS011;4642;51.364;6.788;2023-03-14T06:34:23;0.50;;;0.40;;
9214;SDS011;4642;51.364;6.788;2023-03-14T06:36:49;0.40;;;0.30;;
9214;SDS011;4642;51.364;6.788;2023-03-14T06:39:14;0.60;;;0.30;;
9214;SDS011;4642;51.364;6.788;2023-03-14T06:41:40;0.23;;;0.23;;
9214;SDS011;4642;51.364;6.788;2023-03-14T06:44:05;0.43;;;0.43;;
9214;SDS011;4642;51.364;6.788;2023-03-14T06:46:31;0.30;;;0.30;;
9214;SDS011;4642;51.364;6.788;2023-03-14T06:48:56;0.33;;;0.30;;
9214;SDS011;4642;51.364;6.788;2023-03-14T06:51:22;1.17;;;0.33;;
9214;SDS011;4642;51.364;6.788;2023-03-14T06:53:47;0.67;;;0.33;;
9214;SDS011;4642;51.364;6.788;2023-03-14T06:56:13;0.23;;;0.23;;
9214;SDS011;4642;51.364;6.788;2023-03-14T06:58:38;0.20;;;0.20;;
9214;SDS011;4642;51.364;6.788;2023-03-14T07:01:04;0.40;;;0.30;;
9214;SDS011;4642;51.364;6.788;2023-03-14T07:03:30;0.20;;;0.20;;
9214;SDS011;4642;51.364;6.788;2023-03-14T07:05:55;0.67;;;0.30;;
9214;SDS011;4642;51.364;6.788;2023-03-14T07:08:21;0.27;;;0.23;;
9214;SDS011;4642;51.364;6.788;2023-03-14T07:10:46;4.73;;;0.40;;
9214;SDS011;4642;51.364;6.788;2023-03-14T07:13:12;0.20;;;0.20;;
9214;SDS011;4642;51.364;6.788;2023-03-14T07:15:37;0.50;;;0.33;;
9214;SDS011;4642;51.364;6.788;2023-03-14T07:18:03;0.30;;;0.30;;
9214;SDS011;4642;51.364;6.788;2023-03-14T07:20:29;1.60;;;0.40;;
9214;SDS011;4642;51.364;6.788;2023-03-14T07:22:57;0.30;;;0.30;;
9214;SDS011;4642;51.364;6.788;2023-03-14T07:25:24;0.47;;;0.40;;
9214;SDS011;4642;51.364;6.788;2023-03-14T07:27:50;1.63;;;0.40;;
9214;SDS011;4642;51.364;6.788;2023-03-14T07:30:16;0.30;;;0.30;;
9214;SDS011;4642;51.364;6.788;2023-03-14T07:32:41;0.30;;;0.30;;
9214;SDS011;4642;51.364;6.788;2023-03-14T07:35:07;3.30;;;0.40;;
9214;SDS011;4642;51.364;6.788;2023-03-14T07:37:33;1.40;;;0.20;;
9214;SDS011;4642;51.364;6.788;2023-03-14T07:39:59;0.30;;;0.30;;
9214;SDS011;4642;51.364;6.788;2023-03-14T07:42:24;0.50;;;0.40;;
9214;SDS011;4642;51.364;6.788;2023-03-14T07:44:50;1.67;;;0.70;;
9214;SDS011;4642;51.364;6.788;2023-03-14T07:47:15;1.40;;;0.60;;
9214;SDS011;4642;51.364;6.788;2023-03-14T07:49:41;0.50;;;0.50;;
9214;SDS011;4642;51.364;6.788;2023-03-14T07:52:06;1.07;;;0.40;;
9214;SDS011;4642;51.364;6.788;2023-03-14T07:54:32;0.43;;;0.43;;
9214;SDS011;4642;51.364;6.788;2023-03-14T07:56:57;0.40;;;0.40;;
9214;SDS011;4642;51.364;6.788;2023-03-14T07:59:26;0.50;;;0.50;;
9214;SDS011;4642;51.364;6.788;2023-03-14T08:01:52;0.30;;;0.30;;
9214;SDS011;4642;51.364;6.788;2023-03-14T08:04:18;1.30;;;0.60;;
9214;SDS011;4642;51.364;6.788;2023-03-14T08:06:43;0.97;;;0.70;;
9214;SDS011;4642;51.364;6.788;2023-03-14T08:09:09;1.60;;;0.70;;
9214;SDS011;4642;51.364;6.788;2023-03-14T08:11:35;2.40;;;0.77;;
9214;SDS011;4642;51.364;6.788;2023-03-14T08:14:01;1.53;;;0.70;;
9214;SDS011;4642;51.364;6.788;2023-03-14T08:16:27;1.43;;;0.70;;
9214;SDS011;4642;51.364;6.788;2023-03-14T08:18:52;0.63;;;0.60;;
9214;SDS011;4642;51.364;6.788;2023-03-14T08:21:18;1.73;;;0.80;;
9214;SDS011;4642;51.364;6.788;2023-03-14T08:23:44;1.57;;;0.93;;
9214;SDS011;4642;51.364;6.788;2023-03-14T08:26:09;0.83;;;0.70;;
9214;SDS011;4642;51.364;6.788;2023-03-14T08:28:35;1.03;;;0.93;;
9214;SDS011;4642;51.364;6.788;2023-03-14T08:31:01;1.00;;;0.90;;
9214;SDS011;4642;51.364;6.788;2023-03-14T08:33:27;0.90;;;0.80;;
9214;SDS011;4642;51.364;6.788;2023-03-14T08:35:54;1.13;;;1.03;;
9214;SDS011;4642;51.364;6.788;2023-03-14T08:38:24;1.33;;;1.10;;
9214;SDS011;4642;51.364;6.788;2023-03-14T08:40:54;2.10;;;0.97;;
9214;SDS011;4642;51.364;6.788;2023-03-14T08:43:21;2.50;;;1.00;;
9214;SDS011;4642;51.364;6.788;2023-03-14T08:45:47;2.87;;;1.20;;
9214;SDS011;4642;51.364;6.788;2023-03-14T08:48:12;3.43;;;1.40;;
9214;SDS011;4642;51.364;6.788;2023-03-14T08:50:38;1.40;;;1.30;;
9214;SDS011;4642;51.364;6.788;2023-03-14T08:53:03;1.90;;;1.37;;
9214;SDS011;4642;51.364;6.788;2023-03-14T08:55:29;2.70;;;1.30;;
9214;SDS011;4642;51.364;6.788;2023-03-14T08:57:54;1.20;;;0.80;;
9214;SDS011;4642;51.364;6.788;2023-03-14T09:00:20;2.17;;;1.00;;
9214;SDS011;4642;51.364;6.788;2023-03-14T09:02:46;1.70;;;1.20;;
9214;SDS011;4642;51.364;6.788;2023-03-14T09:05:11;2.67;;;1.30;;
9214;SDS011;4642;51.364;6.788;2023-03-14T09:07:37;2.00;;;1.33;;
9214;SDS011;4642;51.364;6.788;2023-03-14T09:10:04;2.27;;;1.47;;
9214;SDS011;4642;51.364;6.788;2023-03-14T09:12:30;2.07;;;1.77;;
9214;SDS011;4642;51.364;6.788;2023-03-14T09:14:55;2.57;;;1.50;;
9214;SDS011;4642;51.364;6.788;2023-03-14T09:17:21;2.70;;;1.40;;
9214;SDS011;4642;51.364;6.788;2023-03-14T09:19:47;2.30;;;0.87;;
9214;SDS011;4642;51.364;6.788;2023-03-14T09:22:12;0.57;;;0.57;;
9214;SDS011;4642;51.364;6.788;2023-03-14T09:24:38;0.67;;;0.30;;
9214;SDS011;4642;51.364;6.788;2023-03-14T09:27:04;0.40;;;0.40;;
9214;SDS011;4642;51.364;6.788;2023-03-14T09:29:30;0.70;;;0.30;;
9214;SDS011;4642;51.364;6.788;2023-03-14T09:31:55;0.37;;;0.37;;
9214;SDS011;4642;51.364;6.788;2023-03-14T09:34:23;0.77;;;0.40;;
9214;SDS011;4642;51.364;6.788;2023-03-14T09:36:49;2.20;;;0.70;;
9214;SDS011;4642;51.364;6.788;2023-03-14T09:39:14;0.93;;;0.60;;
9214;SDS011;4642;51.364;6.788;2023-03-14T09:41:43;1.27;;;0.50;;
9214;SDS011;4642;51.364;6.788;2023-03-14T09:46:44;2.87;;;0.70;;
9214;SDS011;4642;51.364;6.788;2023-03-14T09:49:19;2.43;;;1.10;;
9214;SDS011;4642;51.364;6.788;2023-03-14T09:51:49;1.10;;;0.70;;
9214;SDS011;4642;51.364;6.788;2023-03-14T09:54:26;1.60;;;1.40;;
9214;SDS011;4642;51.364;6.788;2023-03-14T09:57:00;1.20;;;1.10;;
9214;SDS011;4642;51.364;6.788;2023-03-14T09:59:28;2.43;;;1.30;;
9214;SDS011;4642;51.364;6.788;2023-03-14T10:01:56;1.40;;;1.20;;
9214;SDS011;4642;51.364;6.788;2023-03-14T10:04:26;1.47;;;1.17;;
9214;SDS011;4642;51.364;6.788;2023-03-14T10:06:55;2.07;;;1.10;;
9214;SDS011;4642;51.364;6.788;2023-03-14T10:09:21;3.37;;;1.33;;
9214;SDS011;4642;51.364;6.788;2023-03-14T10:11:53;1.80;;;1.57;;
9214;SDS011;4642;51.364;6.788;2023-03-14T10:14:28;2.73;;;1.57;;
9214;SDS011;4642;51.364;6.788;2023-03-14T10:17:04;2.60;;;1.73;;
9214;SDS011;4642;51.364;6.788;2023-03-14T10:19:35;1.80;;;1.70;;
9214;SDS011;4642;51.364;6.788;2023-03-14T10:22:02;1.60;;;1.50;;
9214;SDS011;4642;51.364;6.788;2023-03-14T10:24:33;4.20;;;1.67;;
9214;SDS011;4642;51.364;6.788;2023-03-14T10:27:10;1.27;;;1.10;;
9214;SDS011;4642;51.364;6.788;2023-03-14T10:29:55;1.10;;;1.00;;
9214;SDS011;4642;51.364;6.788;2023-03-14T10:32:23;1.00;;;0.90;;
9214;SDS011;4642;51.364;6.788;2023-03-14T10:37:57;2.20;;;1.10;;
9214;SDS011;4642;51.364;6.788;2023-03-14T10:40:28;2.63;;;1.13;;
9214;SDS011;4642;51.364;6.788;2023-03-14T10:42:57;1.70;;;1.00;;
9214;SDS011;4642;51.364;6.788;2023-03-14T10:47:57;0.60;;;0.60;;
9214;SDS011;4642;51.364;6.788;2023-03-14T10:50:48;1.93;;;0.70;;
9214;SDS011;4642;51.364;6.788;2023-03-14T10:53:18;4.03;;;0.93;;
9214;SDS011;4642;51.364;6.788;2023-03-14T10:55:44;5.43;;;1.20;;
9214;SDS011;4642;51.364;6.788;2023-03-14T10:58:19;1.97;;;1.17;;
9214;SDS011;4642;51.364;6.788;2023-03-14T11:00:57;4.43;;;0.80;;
9214;SDS011;4642;51.364;6.788;2023-03-14T11:03:32;3.47;;;1.03;;
9214;SDS011;4642;51.364;6.788;2023-03-14T11:06:04;1.70;;;0.83;;
9214;SDS011;4642;51.364;6.788;2023-03-14T11:08:41;2.93;;;1.10;;
9214;SDS011;4642;51.364;6.788;2023-03-14T11:11:16;3.27;;;1.00;;
9214;SDS011;4642;51.364;6.788;2023-03-14T11:16:56;1.73;;;0.90;;
9214;SDS011;4642;51.364;6.788;2023-03-14T11:19:41;4.27;;;1.20;;
9214;SDS011;4642;51.364;6.788;2023-03-14T11:22:40;3.27;;;0.90;;
9214;SDS011;4642;51.364;6.788;2023-03-14T11:25:26;5.60;;;1.30;;
9214;SDS011;4642;51.364;6.788;2023-03-14T11:30:52;3.47;;;1.53;;
9214;SDS011;4642;51.364;6.788;2023-03-14T11:33:21;2.77;;;1.10;;
9214;SDS011;4642;51.364;6.788;2023-03-14T11:36:03;3.53;;;1.00;;
9214;SDS011;4642;51.364;6.788;2023-03-14T11:38:48;4.03;;;1.13;;
9214;SDS011;4642;51.364;6.788;2023-03-14T11:41:37;2.27;;;1.43;;
9214;SDS011;4642;51.364;6.788;2023-03-14T11:44:04;2.83;;;1.10;;
9214;SDS011;4642;51.364;6.788;2023-03-14T11:46:49;4.70;;;0.90;;
9214;SDS011;4642;51.364;6.788;2023-03-14T11:49:25;3.17;;;1.27;;
9214;SDS011;4642;51.364;6.788;2023-03-14T11:51:57;2.17;;;1.00;;
9214;SDS011;4642;51.364;6.788;2023-03-14T11:54:30;1.97;;;1.27;;
9214;SDS011;4642;51.364;6.788;2023-03-14T11:57:11;8.57;;;1.87;;
9214;SDS011;4642;51.364;6.788;2023-03-14T11:59:46;2.47;;;1.37;;
9214;SDS011;4642;51.364;6.788;2023-03-14T12:02:27;5.53;;;1.40;;
9214;SDS011;4642;51.364;6.788;2023-03-14T12:05:37;2.17;;;0.80;;
9214;SDS011;4642;51.364;6.788;2023-03-14T12:17:06;3.30;;;1.70;;
9214;SDS011;4642;51.364;6.788;2023-03-14T12:22:49;8.93;;;1.97;;
9214;SDS011;4642;51.364;6.788;2023-03-14T12:25:20;10.80;;;3.13;;
9214;SDS011;4642;51.364;6.788;2023-03-14T12:30:33;7.83;;;1.90;;
9214;SDS011;4642;51.364;6.788;2023-03-14T12:35:36;7.70;;;2.00;;
9214;SDS011;4642;51.364;6.788;2023-03-14T12:38:03;11.63;;;2.20;;
9214;SDS011;4642;51.364;6.788;2023-03-14T12:40:35;9.00;;;2.17;;
9214;SDS011;4642;51.364;6.788;2023-03-14T12:43:24;6.20;;;1.60;;
9214;SDS011;4642;51.364;6.788;2023-03-14T12:46:15;9.00;;;1.57;;
9214;SDS011;4642;51.364;6.788;2023-03-14T12:48:46;5.40;;;1.33;;
9214;SDS011;4642;51.364;6.788;2023-03-14T12:51:19;4.13;;;1.23;;
9214;SDS011;4642;51.364;6.788;2023-03-14T12:53:55;9.07;;;1.80;;
9214;SDS011;4642;51.364;6.788;2023-03-14T13:04:33;11.13;;;2.97;;
9214;SDS011;4642;51.364;6.788;2023-03-14T13:07:02;9.80;;;2.57;;
9214;SDS011;4642;51.364;6.788;2023-03-14T13:11:55;11.27;;;2.80;;
9214;SDS011;4642;51.364;6.788;2023-03-14T13:14:25;4.90;;;1.70;;
9214;SDS011;4642;51.364;6.788;2023-03-14T13:16:53;8.00;;;1.97;;
9214;SDS011;4642;51.364;6.788;2023-03-14T13:19:20;10.53;;;2.47;;
9214;SDS011;4642;51.364;6.788;2023-03-14T13:21:49;10.67;;;2.43;;
9214;SDS011;4642;51.364;6.788;2023-03-14T13:24:22;16.53;;;2.70;;
9214;SDS011;4642;51.364;6.788;2023-03-14T13:26:51;10.77;;;2.70;;
9214;SDS011;4642;51.364;6.788;2023-03-14T13:29:19;10.03;;;2.60;;
9214;SDS011;4642;51.364;6.788;2023-03-14T13:31:53;11.33;;;2.43;;
9214;SDS011;4642;51.364;6.788;2023-03-14T13:34:28;15.17;;;2.60;;
9214;SDS011;4642;51.364;6.788;2023-03-14T13:36:54;10.17;;;3.27;;
9214;SDS011;4642;51.364;6.788;2023-03-14T13:39:21;11.37;;;3.20;;
9214;SDS011;4642;51.364;6.788;2023-03-14T13:41:50;21.17;;;3.63;;
9214;SDS011;4642;51.364;6.788;2023-03-14T13:44:17;21.07;;;3.57;;
9214;SDS011;4642;51.364;6.788;2023-03-14T13:46:49;12.30;;;3.13;;
9214;SDS011;4642;51.364;6.788;2023-03-14T13:49:22;10.83;;;2.77;;
9214;SDS011;4642;51.364;6.788;2023-03-14T13:51:49;18.43;;;2.90;;
9214;SDS011;4642;51.364;6.788;2023-03-14T13:54:16;8.67;;;2.50;;
9214;SDS011;4642;51.364;6.788;2023-03-14T13:56:43;6.43;;;1.87;;
9214;SDS011;4642;51.364;6.788;2023-03-14T13:59:22;11.20;;;2.87;;
9214;SDS011;4642;51.364;6.788;2023-03-14T14:01:59;18.63;;;3.20;;
9214;SDS011;4642;51.364;6.788;2023-03-14T14:04:28;10.43;;;2.30;;
9214;SDS011;4642;51.364;6.788;2023-03-14T14:06:57;14.80;;;2.50;;
9214;SDS011;4642;51.364;6.788;2023-03-14T14:09:25;12.90;;;2.40;;
9214;SDS011;4642;51.364;6.788;2023-03-14T14:11:56;11.60;;;2.37;;
9214;SDS011;4642;51.364;6.788;2023-03-14T14:14:32;8.90;;;2.07;;
9214;SDS011;4642;51.364;6.788;2023-03-14T14:17:21;10.97;;;2.30;;
9214;SDS011;4642;51.364;6.788;2023-03-14T14:22:56;17.30;;;2.53;;
9214;SDS011;4642;51.364;6.788;2023-03-14T14:25:22;8.37;;;1.73;;
9214;SDS011;4642;51.364;6.788;2023-03-14T14:27:49;10.80;;;2.27;;
9214;SDS011;4642;51.364;6.788;2023-03-14T14:32:45;9.47;;;1.50;;
9214;SDS011;4642;51.364;6.788;2023-03-14T14:35:25;10.47;;;2.47;;
9214;SDS011;4642;51.364;6.788;2023-03-14T14:37:59;7.87;;;2.17;;
9214;SDS011;4642;51.364;6.788;2023-03-14T14:40:26;8.73;;;2.27;;
9214;SDS011;4642;51.364;6.788;2023-03-14T14:42:53;7.40;;;1.63;;
9214;SDS011;4642;51.364;6.788;2023-03-14T14:45:21;12.30;;;2.30;;
9214;SDS011;4642;51.364;6.788;2023-03-14T14:50:39;5.97;;;1.80;;
9214;SDS011;4642;51.364;6.788;2023-03-14T14:55:55;4.20;;;1.07;;
9214;SDS011;4642;51.364;6.788;2023-03-14T15:00:50;9.03;;;1.43;;
9214;SDS011;4642;51.364;6.788;2023-03-14T15:03:31;5.57;;;1.50;;
9214;SDS011;4642;51.364;6.788;2023-03-14T15:05:58;5.87;;;1.30;;
9214;SDS011;4642;51.364;6.788;2023-03-14T15:08:25;5.70;;;1.30;;
9214;SDS011;4642;51.364;6.788;2023-03-14T15:10:51;7.80;;;1.73;;
9214;SDS011;4642;51.364;6.788;2023-03-14T15:13:17;4.97;;;1.23;;
9214;SDS011;4642;51.364;6.788;2023-03-14T15:15:42;6.87;;;1.60;;
9214;SDS011;4642;51.364;6.788;2023-03-14T15:18:15;4.87;;;1.10;;
9214;SDS011;4642;51.364;6.788;2023-03-14T15:20:43;10.93;;;1.60;;
9214;SDS011;4642;51.364;6.788;2023-03-14T15:23:10;5.53;;;1.20;;
9214;SDS011;4642;51.364;6.788;2023-03-14T15:25:38;7.43;;;1.50;;
9214;SDS011;4642;51.364;6.788;2023-03-14T15:28:08;8.83;;;1.80;;
9214;SDS011;4642;51.364;6.788;2023-03-14T15:30:37;5.60;;;1.60;;
9214;SDS011;4642;51.364;6.788;2023-03-14T15:33:03;6.17;;;1.47;;
9214;SDS011;4642;51.364;6.788;2023-03-14T15:35:29;2.60;;;1.30;;
9214;SDS011;4642;51.364;6.788;2023-03-14T15:37:54;4.53;;;1.37;;
9214;SDS011;4642;51.364;6.788;2023-03-14T15:40:20;8.70;;;1.43;;
9214;SDS011;4642;51.364;6.788;2023-03-14T15:42:48;3.40;;;1.10;;
9214;SDS011;4642;51.364;6.788;2023-03-14T15:45:14;8.43;;;1.50;;
9214;SDS011;4642;51.364;6.788;2023-03-14T15:47:40;4.50;;;1.53;;
9214;SDS011;4642;51.364;6.788;2023-03-14T15:50:05;5.83;;;1.30;;
9214;SDS011;4642;51.364;6.788;2023-03-14T15:52:34;4.43;;;1.20;;
9214;SDS011;4642;51.364;6.788;2023-03-14T15:55:00;4.53;;;1.20;;
9214;SDS011;4642;51.364;6.788;2023-03-14T15:57:25;6.07;;;1.53;;
9214;SDS011;4642;51.364;6.788;2023-03-14T15:59:51;5.73;;;1.20;;
9214;SDS011;4642;51.364;6.788;2023-03-14T16:02:16;6.43;;;1.60;;
9214;SDS011;4642;51.364;6.788;2023-03-14T16:04:42;5.27;;;1.40;;
9214;SDS011;4642;51.364;6.788;2023-03-14T16:07:08;5.90;;;1.47;;
9214;SDS011;4642;51.364;6.788;2023-03-14T16:09:34;4.33;;;1.03;;
9214;SDS011;4642;51.364;6.788;2023-03-14T16:12:00;8.33;;;1.57;;
9214;SDS011;4642;51.364;6.788;2023-03-14T16:14:25;8.23;;;1.57;;
9214;SDS011;4642;51.364;6.788;2023-03-14T16:16:52;4.27;;;1.30;;
9214;SDS011;4642;51.364;6.788;2023-03-14T16:19:19;4.80;;;1.10;;
9214;SDS011;4642;51.364;6.788;2023-03-14T16:21:45;3.93;;;1.33;;
9214;SDS011;4642;51.364;6.788;2023-03-14T16:24:11;6.93;;;1.63;;
9214;SDS011;4642;51.364;6.788;2023-03-14T16:26:36;2.00;;;1.00;;
9214;SDS011;4642;51.364;6.788;2023-03-14T16:29:02;9.13;;;1.40;;
9214;SDS011;4642;51.364;6.788;2023-03-14T16:31:27;7.13;;;1.30;;
9214;SDS011;4642;51.364;6.788;2023-03-14T16:33:53;6.63;;;1.27;;